createdAt,value
2024-01-22T00:00:55.086Z,659.00
2024-01-22T00:01:55.033Z,664.00
2024-01-22T00:02:55.143Z,660.00
2024-01-22T00:03:55.158Z,665.00
2024-01-22T00:04:55.230Z,663.00
2024-01-22T00:05:55.383Z,655.00
2024-01-22T00:06:55.363Z,664.00
2024-01-22T00:07:55.369Z,665.00
2024-01-22T00:08:55.457Z,658.00
2024-01-22T00:09:55.511Z,664.00
2024-01-22T00:10:55.555Z,665.00
2024-01-22T00:11:55.675Z,662.00
2024-01-22T00:12:55.718Z,658.00
2024-01-22T00:13:55.775Z,661.00
2024-01-22T00:14:55.915Z,659.00
2024-01-22T00:15:55.916Z,664.00
2024-01-22T00:16:55.953Z,672.00
2024-01-22T00:17:56.089Z,662.00
2024-01-22T00:18:56.272Z,658.00
2024-01-22T00:19:56.250Z,662.00
2024-01-22T00:20:56.230Z,662.00
2024-01-22T00:21:56.273Z,659.00
2024-01-22T00:22:56.335Z,659.00
2024-01-22T00:23:56.414Z,662.00
2024-01-22T00:24:56.447Z,659.00
2024-01-22T00:25:56.502Z,655.00
2024-01-22T00:26:56.614Z,659.00
2024-01-22T00:27:56.736Z,666.00
2024-01-22T00:28:56.696Z,659.00
2024-01-22T00:29:56.777Z,660.00
2024-01-22T00:30:56.806Z,659.00
2024-01-22T00:31:56.845Z,657.00
2024-01-22T00:32:57.047Z,665.00
2024-01-22T00:33:57.043Z,657.00
2024-01-22T00:34:57.099Z,659.00
2024-01-22T00:35:57.116Z,660.00
2024-01-22T00:36:57.195Z,656.00
2024-01-22T00:37:57.268Z,658.00
2024-01-22T00:38:57.356Z,662.00
2024-01-22T00:39:57.375Z,661.00
2024-01-22T00:40:57.456Z,657.00
2024-01-22T00:41:57.518Z,659.00
2024-01-22T00:42:57.554Z,656.00
2024-01-22T00:43:57.608Z,660.00
2024-01-22T00:44:57.703Z,657.00
2024-01-22T00:45:57.697Z,657.00
2024-01-22T00:46:57.792Z,656.00
2024-01-22T00:47:57.892Z,657.00
2024-01-22T00:48:57.968Z,660.00
2024-01-22T00:49:57.976Z,652.00
2024-01-22T00:50:58.066Z,656.00
2024-01-22T00:51:58.098Z,657.00
2024-01-22T00:52:58.169Z,655.00
2024-01-22T00:53:58.297Z,659.00
2024-01-22T00:54:58.271Z,658.00
2024-01-22T00:55:58.347Z,656.00
2024-01-22T00:56:58.440Z,659.00
2024-01-22T00:57:58.446Z,656.00
2024-01-22T00:58:58.539Z,655.00
2024-01-22T00:59:58.690Z,656.00
2024-01-22T01:00:58.701Z,655.00
2024-01-22T01:01:58.753Z,657.00
2024-01-22T01:02:58.898Z,654.00
2024-01-22T01:03:58.877Z,658.00
2024-01-22T01:04:58.939Z,661.00
2024-01-22T01:05:58.990Z,656.00
2024-01-22T01:06:59.042Z,655.00
2024-01-22T01:07:59.108Z,659.00
2024-01-22T01:08:59.157Z,659.00
2024-01-22T01:09:59.188Z,655.00
2024-01-22T01:10:59.287Z,653.00
2024-01-22T01:11:59.394Z,653.00
2024-01-22T01:12:59.382Z,652.00
2024-01-22T01:13:59.431Z,650.00
2024-01-22T01:14:59.532Z,650.00
2024-01-22T01:15:59.579Z,650.00
2024-01-22T01:16:59.650Z,654.00
2024-01-22T01:17:59.847Z,652.00
2024-01-22T01:18:59.905Z,655.00
2024-01-22T01:19:59.841Z,656.00
2024-01-22T01:20:59.929Z,656.00
2024-01-22T01:21:59.955Z,649.00
2024-01-22T01:23:00.033Z,651.00
2024-01-22T01:24:00.156Z,650.00
2024-01-22T01:25:00.238Z,649.00
2024-01-22T01:26:00.233Z,651.00
2024-01-22T01:27:00.323Z,653.00
2024-01-22T01:28:00.411Z,648.00
2024-01-22T01:29:00.442Z,652.00
2024-01-22T01:30:00.619Z,653.00
2024-01-22T01:31:00.588Z,645.00
2024-01-22T01:32:00.659Z,650.00
2024-01-22T01:33:00.851Z,647.00
2024-01-22T01:34:00.938Z,655.00
2024-01-22T01:35:00.850Z,650.00
2024-01-22T01:36:00.931Z,649.00
2024-01-22T01:37:01.007Z,654.00
2024-01-22T01:38:01.077Z,645.00
2024-01-22T01:39:01.184Z,653.00
2024-01-22T01:40:01.268Z,653.00
2024-01-22T01:41:01.299Z,653.00
2024-01-22T01:42:01.438Z,648.00
2024-01-22T01:43:01.391Z,646.00
2024-01-22T01:44:01.476Z,653.00
2024-01-22T01:45:01.641Z,649.00
2024-01-22T01:46:01.666Z,651.00
2024-01-22T01:47:01.716Z,655.00
2024-01-22T01:48:01.882Z,655.00
2024-01-22T01:49:02.046Z,649.00
2024-01-22T01:50:01.942Z,652.00
2024-01-22T01:51:02.134Z,651.00
2024-01-22T01:52:02.067Z,648.00
2024-01-22T01:53:02.116Z,649.00
2024-01-22T01:54:02.230Z,652.00
2024-01-22T01:55:02.226Z,651.00
2024-01-22T01:56:02.332Z,650.00
2024-01-22T01:57:02.464Z,649.00
2024-01-22T01:58:05.846Z,652.00
2024-01-22T01:59:02.471Z,652.00
2024-01-22T02:00:02.681Z,651.00
2024-01-22T02:01:02.654Z,652.00
2024-01-22T02:02:02.471Z,648.00
2024-01-22T02:03:02.574Z,650.00
2024-01-22T02:04:02.514Z,644.00
2024-01-22T02:05:02.495Z,648.00
2024-01-22T02:06:02.575Z,650.00
2024-01-22T02:07:02.465Z,652.00
2024-01-22T02:08:02.493Z,649.00
2024-01-22T02:09:02.535Z,648.00
2024-01-22T02:10:02.466Z,650.00
2024-01-22T02:11:02.468Z,651.00
2024-01-22T02:12:02.542Z,653.00
2024-01-22T02:13:02.483Z,645.00
2024-01-22T02:14:02.473Z,647.00
2024-01-22T02:15:02.487Z,650.00
2024-01-22T02:16:02.511Z,646.00
2024-01-22T02:17:02.493Z,648.00
2024-01-22T02:18:02.668Z,646.00
2024-01-22T02:19:02.555Z,645.00
2024-01-22T02:20:02.477Z,649.00
2024-01-22T02:21:02.541Z,650.00
2024-01-22T02:22:02.589Z,649.00
2024-01-22T02:23:02.625Z,649.00
2024-01-22T02:24:02.742Z,647.00
2024-01-22T02:25:02.773Z,649.00
2024-01-22T02:26:02.834Z,648.00
2024-01-22T02:27:02.986Z,646.00
2024-01-22T02:28:03.193Z,646.00
2024-01-22T02:29:03.079Z,647.00
2024-01-22T02:30:03.142Z,645.00
2024-01-22T02:31:03.197Z,650.00
2024-01-22T02:32:03.275Z,650.00
2024-01-22T02:33:03.457Z,645.00
2024-01-22T02:34:03.585Z,653.00
2024-01-22T02:35:03.460Z,651.00
2024-01-22T02:36:04.224Z,649.00
2024-01-22T02:37:03.622Z,645.00
2024-01-22T02:38:03.686Z,647.00
2024-01-22T02:39:03.767Z,649.00
2024-01-22T02:40:03.787Z,647.00
2024-01-22T02:41:03.885Z,644.00
2024-01-22T02:42:03.996Z,648.00
2024-01-22T02:43:03.971Z,645.00
2024-01-22T02:44:04.061Z,646.00
2024-01-22T02:45:04.251Z,651.00
2024-01-22T02:46:04.187Z,647.00
2024-01-22T02:47:04.279Z,650.00
2024-01-22T02:48:04.460Z,649.00
2024-01-22T02:49:04.569Z,644.00
2024-01-22T02:50:04.484Z,646.00
2024-01-22T02:51:04.559Z,649.00
2024-01-22T02:52:04.632Z,646.00
2024-01-22T02:53:04.654Z,651.00
2024-01-22T02:54:04.835Z,649.00
2024-01-22T02:55:04.821Z,653.00
2024-01-22T02:56:04.900Z,650.00
2024-01-22T02:57:05.020Z,651.00
2024-01-22T02:58:05.036Z,648.00
2024-01-22T02:59:05.137Z,644.00
2024-01-22T03:00:05.255Z,653.00
2024-01-22T03:01:05.336Z,651.00
2024-01-22T03:02:05.329Z,647.00
2024-01-22T03:03:05.407Z,655.00
2024-01-22T03:04:05.501Z,651.00
2024-01-22T03:05:05.557Z,653.00
2024-01-22T03:06:05.677Z,647.00
2024-01-22T03:07:05.756Z,651.00
2024-01-22T03:08:05.726Z,645.00
2024-01-22T03:09:05.825Z,642.00
2024-01-22T03:10:06.607Z,650.00
2024-01-22T03:11:05.973Z,645.00
2024-01-22T03:12:06.111Z,654.00
2024-01-22T03:13:06.054Z,652.00
2024-01-22T03:14:06.158Z,648.00
2024-01-22T03:15:06.317Z,651.00
2024-01-22T03:16:06.325Z,650.00
2024-01-22T03:17:06.372Z,650.00
2024-01-22T03:18:06.521Z,650.00
2024-01-22T03:19:06.660Z,648.00
2024-01-22T03:20:06.574Z,647.00
2024-01-22T03:21:06.733Z,648.00
2024-01-22T03:22:06.709Z,648.00
2024-01-22T03:23:06.759Z,653.00
2024-01-22T03:24:06.851Z,651.00
2024-01-22T03:25:06.850Z,649.00
2024-01-22T03:26:06.955Z,646.00
2024-01-22T03:27:07.068Z,650.00
2024-01-22T03:28:07.044Z,646.00
2024-01-22T03:29:07.137Z,651.00
2024-01-22T03:30:07.283Z,652.00
2024-01-22T03:31:07.246Z,650.00
2024-01-22T03:32:07.317Z,646.00
2024-01-22T03:33:07.443Z,653.00
2024-01-22T03:34:07.537Z,650.00
2024-01-22T03:35:07.459Z,651.00
2024-01-22T03:36:07.543Z,648.00
2024-01-22T03:37:07.590Z,649.00
2024-01-22T03:38:07.629Z,646.00
2024-01-22T03:39:10.222Z,655.00
2024-01-22T03:40:07.713Z,645.00
2024-01-22T03:41:07.685Z,646.00
2024-01-22T03:42:07.740Z,653.00
2024-01-22T03:43:07.708Z,650.00
2024-01-22T03:44:07.685Z,651.00
2024-01-22T03:45:07.765Z,649.00
2024-01-22T03:46:07.718Z,645.00
2024-01-22T03:47:07.677Z,648.00
2024-01-22T03:48:07.794Z,645.00
2024-01-22T03:49:07.808Z,646.00
2024-01-22T03:50:07.765Z,650.00
2024-01-22T03:51:07.777Z,647.00
2024-01-22T03:52:07.719Z,652.00
2024-01-22T03:53:07.695Z,650.00
2024-01-22T03:54:07.740Z,642.00
2024-01-22T03:55:07.700Z,649.00
2024-01-22T03:56:07.727Z,652.00
2024-01-22T03:57:07.793Z,649.00
2024-01-22T03:58:07.737Z,651.00
2024-01-22T03:59:07.705Z,647.00
2024-01-22T04:00:07.757Z,645.00
2024-01-22T04:01:07.771Z,646.00
2024-01-22T04:02:07.713Z,646.00
2024-01-22T04:03:07.774Z,645.00
2024-01-22T04:04:07.755Z,647.00
2024-01-22T04:05:07.735Z,646.00
2024-01-22T04:06:07.833Z,648.00
2024-01-22T04:07:07.829Z,649.00
2024-01-22T04:08:07.723Z,649.00
2024-01-22T04:09:07.747Z,646.00
2024-01-22T04:10:07.724Z,642.00
2024-01-22T04:11:07.712Z,645.00
2024-01-22T04:12:07.771Z,647.00
2024-01-22T04:13:07.744Z,645.00
2024-01-22T04:14:07.769Z,645.00
2024-01-22T04:15:07.857Z,641.00
2024-01-22T04:16:07.913Z,637.00
2024-01-22T04:17:07.973Z,642.00
2024-01-22T04:18:08.218Z,646.00
2024-01-22T04:19:08.229Z,640.00
2024-01-22T04:20:08.212Z,637.00
2024-01-22T04:21:08.299Z,645.00
2024-01-22T04:22:08.333Z,638.00
2024-01-22T04:23:08.416Z,642.00
2024-01-22T04:24:08.576Z,639.00
2024-01-22T04:25:08.524Z,638.00
2024-01-22T04:26:08.570Z,643.00
2024-01-22T04:27:08.704Z,643.00
2024-01-22T04:28:08.694Z,638.00
2024-01-22T04:29:08.728Z,642.00
2024-01-22T04:30:08.835Z,641.00
2024-01-22T04:31:08.878Z,637.00
2024-01-22T04:32:09.006Z,643.00
2024-01-22T04:33:09.115Z,644.00
2024-01-22T04:34:09.086Z,643.00
2024-01-22T04:35:09.048Z,640.00
2024-01-22T04:36:09.168Z,642.00
2024-01-22T04:37:09.140Z,641.00
2024-01-22T04:38:09.209Z,641.00
2024-01-22T04:39:09.254Z,639.00
2024-01-22T04:40:09.287Z,642.00
2024-01-22T04:41:09.361Z,640.00
2024-01-22T04:42:09.422Z,642.00
2024-01-22T04:43:09.444Z,643.00
2024-01-22T04:44:09.471Z,642.00
2024-01-22T04:45:09.605Z,645.00
2024-01-22T04:46:09.532Z,637.00
2024-01-22T04:47:09.590Z,638.00
2024-01-22T04:48:16.981Z,600.00
2024-01-22T04:49:16.951Z,600.00
2024-01-22T04:50:16.911Z,600.00
2024-01-22T04:51:16.967Z,600.00
2024-01-22T04:52:16.931Z,600.00
2024-01-22T04:53:16.902Z,601.00
2024-01-22T04:54:16.957Z,602.00
2024-01-22T04:55:21.173Z,601.00
2024-01-22T04:56:17.921Z,601.00
2024-01-22T04:57:16.969Z,602.00
2024-01-22T04:58:16.956Z,602.00
2024-01-22T04:59:16.944Z,603.00
2024-01-22T05:00:16.957Z,606.00
2024-01-22T05:01:16.961Z,602.00
2024-01-22T05:02:16.925Z,604.00
2024-01-22T05:03:17.044Z,599.00
2024-01-22T05:04:16.993Z,603.00
2024-01-22T05:05:17.097Z,609.00
2024-01-22T05:06:17.037Z,600.00
2024-01-22T05:07:16.896Z,598.00
2024-01-22T05:08:16.925Z,606.00
2024-01-22T05:09:16.965Z,605.00
2024-01-22T05:10:16.947Z,612.00
2024-01-22T05:11:16.924Z,618.00
2024-01-22T05:12:16.952Z,621.00
2024-01-22T05:13:16.932Z,612.00
2024-01-22T05:14:16.910Z,609.00
2024-01-22T05:15:17.123Z,605.00
2024-01-22T05:16:16.916Z,606.00
2024-01-22T05:17:16.938Z,607.00
2024-01-22T05:18:17.568Z,612.00
2024-01-22T05:19:17.062Z,609.00
2024-01-22T05:20:16.969Z,610.00
2024-01-22T05:21:17.092Z,608.00
2024-01-22T05:22:17.032Z,609.00
2024-01-22T05:23:17.058Z,614.00
2024-01-22T05:24:17.173Z,611.00
2024-01-22T05:25:17.045Z,608.00
2024-01-22T05:26:17.083Z,607.00
2024-01-22T05:27:17.227Z,611.00
2024-01-22T05:28:17.135Z,608.00
2024-01-22T05:29:17.126Z,610.00
2024-01-22T05:30:17.280Z,608.00
2024-01-22T05:31:17.170Z,607.00
2024-01-22T05:32:17.203Z,606.00
2024-01-22T05:33:17.277Z,611.00
2024-01-22T05:34:17.334Z,604.00
2024-01-22T05:35:17.217Z,604.00
2024-01-22T05:36:17.352Z,603.00
2024-01-22T05:37:17.246Z,603.00
2024-01-22T05:38:17.281Z,605.00
2024-01-22T05:39:17.333Z,609.00
2024-01-22T05:40:17.264Z,607.00
2024-01-22T05:41:17.268Z,611.00
2024-01-22T05:42:17.335Z,610.00
2024-01-22T05:43:17.333Z,607.00
2024-01-22T05:44:18.017Z,611.00
2024-01-22T05:45:17.485Z,605.00
2024-01-22T05:46:17.319Z,610.00
2024-01-22T05:47:17.336Z,607.00
2024-01-22T05:48:17.550Z,609.00
2024-01-22T05:49:17.477Z,606.00
2024-01-22T05:50:17.350Z,608.00
2024-01-22T05:51:17.485Z,607.00
2024-01-22T05:52:17.412Z,604.00
2024-01-22T05:53:17.452Z,601.00
2024-01-22T05:54:17.422Z,600.00
2024-01-22T05:55:19.483Z,600.00
2024-01-22T05:56:17.495Z,600.00
2024-01-22T05:57:17.581Z,600.00
2024-01-22T05:58:17.582Z,601.00
2024-01-22T05:59:17.613Z,601.00
2024-01-22T06:00:17.737Z,603.00
2024-01-22T06:01:18.781Z,600.00
2024-01-22T06:02:17.799Z,601.00
2024-01-22T06:03:17.946Z,604.00
2024-01-22T06:04:17.994Z,601.00
2024-01-22T06:05:17.941Z,600.00
2024-01-22T06:06:18.059Z,603.00
2024-01-22T06:07:18.133Z,606.00
2024-01-22T06:08:18.096Z,602.00
2024-01-22T06:09:18.251Z,602.00
2024-01-22T06:10:18.300Z,602.00
2024-01-22T06:11:18.199Z,601.00
2024-01-22T06:12:18.305Z,602.00
2024-01-22T06:13:18.260Z,603.00
2024-01-22T06:14:18.288Z,606.00
2024-01-22T06:15:18.382Z,607.00
2024-01-22T06:16:18.332Z,604.00
2024-01-22T06:17:18.374Z,606.00
2024-01-22T06:18:18.442Z,613.00
2024-01-22T06:19:18.465Z,614.00
2024-01-22T06:20:18.441Z,618.00
2024-01-22T06:21:18.497Z,611.00
2024-01-22T06:22:18.605Z,615.00
2024-01-22T06:23:18.570Z,610.00
2024-01-22T06:24:18.748Z,610.00
2024-01-22T06:25:18.575Z,613.00
2024-01-22T06:26:18.865Z,620.00
2024-01-22T06:27:18.806Z,620.00
2024-01-22T06:28:18.635Z,624.00
2024-01-22T06:29:18.613Z,619.00
2024-01-22T06:30:18.707Z,634.00
2024-01-22T06:31:18.758Z,632.00
2024-01-22T06:32:18.802Z,639.00
2024-01-22T06:33:18.879Z,629.00
2024-01-22T06:34:19.025Z,630.00
2024-01-22T06:35:18.764Z,640.00
2024-01-22T06:36:19.000Z,657.00
2024-01-22T06:37:18.890Z,655.00
2024-01-22T06:38:18.945Z,657.00
2024-01-22T06:39:19.155Z,660.00
2024-01-22T06:40:19.079Z,669.00
2024-01-22T06:41:19.149Z,652.00
2024-01-22T06:42:27.465Z,642.00
2024-01-22T06:43:20.233Z,642.00
2024-01-22T06:44:21.122Z,645.00
2024-01-22T06:45:19.259Z,650.00
2024-01-22T06:46:19.235Z,649.00
2024-01-22T06:47:19.223Z,654.00
2024-01-22T06:48:19.369Z,655.00
2024-01-22T06:49:19.498Z,661.00
2024-01-22T06:50:19.281Z,650.00
2024-01-22T06:51:27.011Z,649.00
2024-01-22T06:52:20.255Z,649.00
2024-01-22T06:53:19.257Z,650.00
2024-01-22T06:54:20.857Z,656.00
2024-01-22T06:55:19.219Z,658.00
2024-01-22T06:56:19.220Z,693.00
2024-01-22T06:57:19.368Z,755.00
2024-01-22T06:58:19.227Z,778.00
2024-01-22T06:59:19.241Z,783.00
2024-01-22T07:00:19.275Z,778.00
2024-01-22T07:01:19.282Z,771.00
2024-01-22T07:02:19.246Z,739.00
2024-01-22T07:03:19.267Z,746.00
2024-01-22T07:04:19.296Z,715.00
2024-01-22T07:05:19.308Z,698.00
2024-01-22T07:06:22.231Z,714.00
2024-01-22T07:07:19.256Z,714.00
2024-01-22T07:08:19.279Z,717.00
2024-01-22T07:09:19.284Z,729.00
2024-01-22T07:10:19.257Z,744.00
2024-01-22T07:11:19.258Z,767.00
2024-01-22T07:12:19.317Z,787.00
2024-01-22T07:13:19.277Z,787.00
2024-01-22T07:14:19.263Z,802.00
2024-01-22T07:15:19.461Z,808.00
2024-01-22T07:16:19.254Z,819.00
2024-01-22T07:17:19.248Z,814.00
2024-01-22T07:18:19.483Z,823.00
2024-01-22T07:19:19.445Z,834.00
2024-01-22T07:20:19.273Z,852.00
2024-01-22T07:21:19.427Z,847.00
2024-01-22T07:22:19.285Z,846.00
2024-01-22T07:23:19.288Z,855.00
2024-01-22T07:24:19.362Z,862.00
2024-01-22T07:25:19.266Z,868.00
2024-01-22T07:26:19.252Z,896.00
2024-01-22T07:27:19.324Z,891.00
2024-01-22T07:28:19.599Z,885.00
2024-01-22T07:29:19.288Z,891.00
2024-01-22T07:30:19.330Z,900.00
2024-01-22T07:31:19.305Z,918.00
2024-01-22T07:32:19.269Z,928.00
2024-01-22T07:33:19.392Z,924.00
2024-01-22T07:34:19.443Z,933.00
2024-01-22T07:35:19.361Z,950.00
2024-01-22T07:36:19.529Z,951.00
2024-01-22T07:37:19.548Z,947.00
2024-01-22T07:38:19.527Z,964.00
2024-01-22T07:39:19.649Z,987.00
2024-01-22T07:40:19.644Z,997.00
2024-01-22T07:41:19.692Z,1003.00
2024-01-22T07:42:19.753Z,1007.00
2024-01-22T07:43:19.733Z,1012.00
2024-01-22T07:44:19.738Z,1019.00
2024-01-22T07:45:20.941Z,1032.00
2024-01-22T07:46:19.851Z,1019.00
2024-01-22T07:47:21.568Z,1014.00
2024-01-22T07:48:19.934Z,986.00
2024-01-22T07:49:19.957Z,1002.00
2024-01-22T07:50:19.831Z,1008.00
2024-01-22T07:51:19.946Z,1024.00
2024-01-22T07:52:19.842Z,1046.00
2024-01-22T07:53:19.830Z,1098.00
2024-01-22T07:54:19.849Z,1119.00
2024-01-22T07:55:19.931Z,1126.00
2024-01-22T07:56:19.837Z,1124.00
2024-01-22T07:57:19.896Z,1126.00
2024-01-22T07:58:19.843Z,1107.00
2024-01-22T07:59:19.863Z,1097.00
2024-01-22T08:00:19.868Z,1072.00
2024-01-22T08:01:19.909Z,1079.00
2024-01-22T08:02:19.860Z,1097.00
2024-01-22T08:03:19.920Z,1106.00
2024-01-22T08:04:19.883Z,1091.00
2024-01-22T08:05:19.856Z,1090.00
2024-01-22T08:06:19.899Z,1090.00
2024-01-22T08:07:20.895Z,1102.00
2024-01-22T08:08:19.845Z,1097.00
2024-01-22T08:09:19.948Z,1097.00
2024-01-22T08:10:19.849Z,1097.00
2024-01-22T08:11:19.848Z,1098.00
2024-01-22T08:12:19.951Z,1092.00
2024-01-22T08:13:19.833Z,1093.00
2024-01-22T08:14:19.836Z,1082.00
2024-01-22T08:15:19.874Z,1093.00
2024-01-22T08:16:19.889Z,1093.00
2024-01-22T08:17:19.873Z,1091.00
2024-01-22T08:18:19.964Z,1087.00
2024-01-22T08:19:19.976Z,1087.00
2024-01-22T08:20:20.432Z,1083.00
2024-01-22T08:21:19.965Z,1073.00
2024-01-22T08:22:19.876Z,1079.00
2024-01-22T08:23:19.853Z,1083.00
2024-01-22T08:24:19.914Z,1078.00
2024-01-22T08:25:19.869Z,1090.00
2024-01-22T08:26:19.844Z,1086.00
2024-01-22T08:27:19.965Z,1090.00
2024-01-22T08:28:19.978Z,1082.00
2024-01-22T08:29:20.045Z,1073.00
2024-01-22T08:30:20.166Z,1074.00
2024-01-22T08:31:21.100Z,1062.00
2024-01-22T08:32:20.181Z,1073.00
2024-01-22T08:33:20.477Z,1071.00
2024-01-22T08:34:20.440Z,1063.00
2024-01-22T08:35:20.607Z,1059.00
2024-01-22T08:36:20.481Z,1062.00
2024-01-22T08:37:20.514Z,1062.00
2024-01-22T08:38:20.579Z,1061.00
2024-01-22T08:39:20.711Z,1062.00
2024-01-22T08:40:20.723Z,1046.00
2024-01-22T08:41:20.796Z,1045.00
2024-01-22T08:42:20.854Z,1054.00
2024-01-22T08:43:20.831Z,1068.00
2024-01-22T08:44:20.768Z,1086.00
2024-01-22T08:45:20.893Z,1073.00
2024-01-22T08:46:20.915Z,1092.00
2024-01-22T08:47:21.012Z,1109.00
2024-01-22T08:48:21.164Z,1115.00
2024-01-22T08:49:21.184Z,1140.00
2024-01-22T08:50:21.209Z,1137.00
2024-01-22T08:51:21.295Z,1171.00
2024-01-22T08:52:21.340Z,1143.00
2024-01-22T08:53:21.423Z,1148.00
2024-01-22T08:54:21.595Z,1160.00
2024-01-22T08:55:21.534Z,1162.00
2024-01-22T08:56:21.627Z,1163.00
2024-01-22T08:57:21.748Z,1167.00
2024-01-22T08:58:21.789Z,1149.00
2024-01-22T08:59:21.804Z,1154.00
2024-01-22T09:00:21.998Z,1151.00
2024-01-22T09:01:22.009Z,1147.00
2024-01-22T09:02:22.009Z,1160.00
2024-01-22T09:03:22.090Z,1163.00
2024-01-22T09:04:22.180Z,1139.00
2024-01-22T09:05:22.273Z,1162.00
2024-01-22T09:06:22.305Z,1143.00
2024-01-22T09:07:22.328Z,1148.00
2024-01-22T09:08:22.393Z,1172.00
2024-01-22T09:09:22.528Z,1178.00
2024-01-22T09:10:22.527Z,1160.00
2024-01-22T09:11:22.622Z,1159.00
2024-01-22T09:12:22.746Z,1173.00
2024-01-22T09:13:22.749Z,1179.00
2024-01-22T09:14:22.806Z,1175.00
2024-01-22T09:15:22.933Z,1186.00
2024-01-22T09:16:22.967Z,1175.00
2024-01-22T09:17:22.996Z,1187.00
2024-01-22T09:18:23.183Z,1196.00
2024-01-22T09:19:23.183Z,1200.00
2024-01-22T09:20:23.212Z,1202.00
2024-01-22T09:21:23.244Z,1205.00
2024-01-22T09:22:23.281Z,1210.00
2024-01-22T09:23:23.423Z,1213.00
2024-01-22T09:24:23.413Z,1224.00
2024-01-22T09:25:23.480Z,1227.00
2024-01-22T09:26:23.543Z,1235.00
2024-01-22T09:27:23.633Z,1227.00
2024-01-22T09:28:23.689Z,1236.00
2024-01-22T09:29:23.749Z,1239.00
2024-01-22T09:30:23.834Z,1235.00
2024-01-22T09:31:23.831Z,1244.00
2024-01-22T09:32:23.974Z,1239.00
2024-01-22T09:33:24.021Z,1250.00
2024-01-22T09:34:24.146Z,1246.00
2024-01-22T09:35:24.131Z,1256.00
2024-01-22T09:36:24.177Z,1227.00
2024-01-22T09:37:24.236Z,1238.00
2024-01-22T09:38:24.329Z,1227.00
2024-01-22T09:39:24.370Z,1238.00
2024-01-22T09:40:28.452Z,1228.00
2024-01-22T09:41:25.466Z,1228.00
2024-01-22T09:42:24.479Z,1230.00
2024-01-22T09:43:24.431Z,1233.00
2024-01-22T09:44:24.410Z,1247.00
2024-01-22T09:45:24.427Z,1276.00
2024-01-22T09:46:24.422Z,1290.00
2024-01-22T09:47:24.432Z,1310.00
2024-01-22T09:48:24.495Z,1314.00
2024-01-22T09:49:24.620Z,1317.00
2024-01-22T09:50:24.421Z,1323.00
2024-01-22T09:51:24.457Z,1318.00
2024-01-22T09:52:31.106Z,1334.00
2024-01-22T09:53:24.481Z,1335.00
2024-01-22T09:54:24.520Z,1338.00
2024-01-22T09:55:24.430Z,1348.00
2024-01-22T09:56:24.438Z,1362.00
2024-01-22T09:57:24.513Z,1382.00
2024-01-22T09:58:24.420Z,1366.00
2024-01-22T09:59:24.409Z,1386.00
2024-01-22T10:00:24.422Z,1373.00
2024-01-22T10:01:24.429Z,1403.00
2024-01-22T10:02:24.462Z,1421.00
2024-01-22T10:03:24.752Z,1424.00
2024-01-22T10:04:24.505Z,1411.00
2024-01-22T10:05:24.564Z,1419.00
2024-01-22T10:06:24.487Z,1384.00
2024-01-22T10:07:24.425Z,1358.00
2024-01-22T10:08:24.435Z,1329.00
2024-01-22T10:09:24.534Z,1333.00
2024-01-22T10:10:24.466Z,1345.00
2024-01-22T10:11:24.435Z,1370.00
2024-01-22T10:12:24.457Z,1371.00
2024-01-22T10:13:24.445Z,1355.00
2024-01-22T10:14:24.458Z,1343.00
2024-01-22T10:15:24.602Z,1320.00
2024-01-22T10:16:24.445Z,1274.00
2024-01-22T10:17:24.504Z,1276.00
2024-01-22T10:18:24.525Z,1259.00
2024-01-22T10:19:24.544Z,1253.00
2024-01-22T10:20:24.463Z,1263.00
2024-01-22T10:21:24.603Z,1266.00
2024-01-22T10:22:24.435Z,1248.00
2024-01-22T10:23:24.479Z,1272.00
2024-01-22T10:24:24.507Z,1260.00
2024-01-22T10:25:24.467Z,1255.00
2024-01-22T10:26:24.460Z,1234.00
2024-01-22T10:27:24.557Z,1245.00
2024-01-22T10:28:24.454Z,1221.00
2024-01-22T10:29:24.463Z,1224.00
2024-01-22T10:30:24.536Z,1219.00
2024-01-22T10:31:24.424Z,1233.00
2024-01-22T10:32:24.455Z,1217.00
2024-01-22T10:33:24.625Z,1212.00
2024-01-22T10:34:24.525Z,1207.00
2024-01-22T10:35:24.457Z,1185.00
2024-01-22T10:36:24.513Z,1206.00
2024-01-22T10:37:24.441Z,1191.00
2024-01-22T10:38:24.485Z,1169.00
2024-01-22T10:39:24.502Z,1166.00
2024-01-22T10:40:24.459Z,1189.00
2024-01-22T10:41:24.484Z,1162.00
2024-01-22T10:42:24.517Z,1172.00
2024-01-22T10:43:24.488Z,1176.00
2024-01-22T10:44:24.468Z,1152.00
2024-01-22T10:45:24.669Z,1164.00
2024-01-22T10:46:24.500Z,1140.00
2024-01-22T10:47:24.502Z,1155.00
2024-01-22T10:48:32.349Z,1146.00
2024-01-22T10:49:25.593Z,1147.00
2024-01-22T10:50:24.645Z,1149.00
2024-01-22T10:51:24.516Z,1153.00
2024-01-22T10:52:24.463Z,1169.00
2024-01-22T10:53:24.491Z,1186.00
2024-01-22T10:54:24.503Z,1212.00
2024-01-22T10:55:24.568Z,1213.00
2024-01-22T10:56:24.463Z,1216.00
2024-01-22T10:57:24.507Z,1218.00
2024-01-22T10:58:24.494Z,1220.00
2024-01-22T10:59:24.462Z,1204.00
2024-01-22T11:00:24.495Z,1189.00
2024-01-22T11:01:24.626Z,1182.00
2024-01-22T11:02:24.474Z,1186.00
2024-01-22T11:03:24.526Z,1159.00
2024-01-22T11:04:24.533Z,1140.00
2024-01-22T11:05:24.540Z,1141.00
2024-01-22T11:06:24.634Z,1147.00
2024-01-22T11:07:24.481Z,1155.00
2024-01-22T11:08:24.516Z,1156.00
2024-01-22T11:09:24.554Z,1144.00
2024-01-22T11:10:24.482Z,1168.00
2024-01-22T11:11:24.509Z,1169.00
2024-01-22T11:12:24.532Z,1159.00
2024-01-22T11:13:24.512Z,1181.00
2024-01-22T11:14:24.483Z,1168.00
2024-01-22T11:15:24.567Z,1168.00
2024-01-22T11:16:24.656Z,1157.00
2024-01-22T11:17:24.516Z,1160.00
2024-01-22T11:18:24.616Z,1171.00
2024-01-22T11:19:24.670Z,1154.00
2024-01-22T11:20:24.561Z,1151.00
2024-01-22T11:21:24.625Z,1151.00
2024-01-22T11:22:24.729Z,1163.00
2024-01-22T11:23:24.798Z,1146.00
2024-01-22T11:24:24.938Z,1157.00
2024-01-22T11:25:24.896Z,1153.00
2024-01-22T11:26:24.985Z,1126.00
2024-01-22T11:27:25.122Z,1140.00
2024-01-22T11:28:25.124Z,1142.00
2024-01-22T11:29:25.163Z,1153.00
2024-01-22T11:30:25.311Z,1136.00
2024-01-22T11:31:25.269Z,1141.00
2024-01-22T11:32:25.400Z,1144.00
2024-01-22T11:33:25.652Z,1157.00
2024-01-22T11:34:25.510Z,1148.00
2024-01-22T11:35:25.819Z,1160.00
2024-01-22T11:36:25.698Z,1147.00
2024-01-22T11:37:25.671Z,1148.00
2024-01-22T11:38:25.725Z,1142.00
2024-01-22T11:39:25.833Z,1153.00
2024-01-22T11:40:25.811Z,1157.00
2024-01-22T11:41:25.880Z,1182.00
2024-01-22T11:42:25.931Z,1211.00
2024-01-22T11:43:25.991Z,1204.00
2024-01-22T11:44:25.989Z,1184.00
2024-01-22T11:45:30.233Z,1188.00
2024-01-22T11:46:27.061Z,1177.00
2024-01-22T11:47:26.074Z,1179.00
2024-01-22T11:48:26.107Z,1187.00
2024-01-22T11:49:26.059Z,1211.00
2024-01-22T11:50:26.056Z,1225.00
2024-01-22T11:51:26.044Z,1210.00
2024-01-22T11:52:26.097Z,1209.00
2024-01-22T11:53:26.021Z,1198.00
2024-01-22T11:54:27.119Z,1188.00
2024-01-22T11:55:26.013Z,1181.00
2024-01-22T11:56:26.027Z,1177.00
2024-01-22T11:57:26.151Z,1187.00
2024-01-22T11:58:26.062Z,1198.00
2024-01-22T11:59:26.083Z,1181.00
2024-01-22T12:00:26.335Z,1177.00
2024-01-22T12:01:26.206Z,1181.00
2024-01-22T12:02:26.233Z,1174.00
2024-01-22T12:03:26.489Z,1183.00
2024-01-22T12:04:26.351Z,1191.00
2024-01-22T12:05:26.380Z,1199.00
2024-01-22T12:06:26.473Z,1195.00
2024-01-22T12:07:26.468Z,1157.00
2024-01-22T12:08:26.516Z,1162.00
2024-01-22T12:09:26.725Z,1155.00
2024-01-22T12:10:26.833Z,1155.00
2024-01-22T12:11:26.651Z,1167.00
2024-01-22T12:12:26.752Z,1174.00
2024-01-22T12:13:26.779Z,1165.00
2024-01-22T12:14:26.827Z,1153.00
2024-01-22T12:15:27.042Z,1155.00
2024-01-22T12:16:26.919Z,1148.00
2024-01-22T12:17:26.944Z,1151.00
2024-01-22T12:18:27.117Z,1159.00
2024-01-22T12:19:27.030Z,1148.00
2024-01-22T12:20:27.114Z,1145.00